sensor_id;sensor_type;location;lat;lon;timestamp;pressure;altitude;pressure_sealevel;temperature;humidity
2339;BME280;1180;51.438;6.978;2023-04-22T00:01:44;99560.03;;;13.51;96.04
2339;BME280;1180;51.438;6.978;2023-04-22T00:04:10;99565.75;;;13.54;95.33
2339;BME280;1180;51.438;6.978;2023-04-22T00:06:35;99567.75;;;13.51;95.90
2339;BME280;1180;51.438;6.978;2023-04-22T00:09:01;99558.28;;;13.51;95.50
2339;BME280;1180;51.438;6.978;2023-04-22T00:11:26;99564.75;;;13.46;95.99
2339;BME280;1180;51.438;6.978;2023-04-22T00:13:52;99566.03;;;13.51;95.75
2339;BME280;1180;51.438;6.978;2023-04-22T00:16:18;99553.50;;;13.47;95.18
2339;BME280;1180;51.438;6.978;2023-04-22T00:18:43;99550.94;;;13.47;95.99
2339;BME280;1180;51.438;6.978;2023-04-22T00:21:08;99553.03;;;13.41;96.05
2339;BME280;1180;51.438;6.978;2023-04-22T00:23:34;99550.97;;;13.35;97.01
2339;BME280;1180;51.438;6.978;2023-04-22T00:25:59;99555.28;;;13.35;96.64
2339;BME280;1180;51.438;6.978;2023-04-22T00:28:25;99552.28;;;13.29;97.42
2339;BME280;1180;51.438;6.978;2023-04-22T00:30:50;99554.50;;;13.34;97.41
2339;BME280;1180;51.438;6.978;2023-04-22T00:33:16;99545.31;;;13.41;96.70
2339;BME280;1180;51.438;6.978;2023-04-22T00:35:41;99546.38;;;13.39;96.24
2339;BME280;1180;51.438;6.978;2023-04-22T00:38:06;99547.19;;;13.39;96.79
2339;BME280;1180;51.438;6.978;2023-04-22T00:40:32;99546.75;;;13.34;97.37
2339;BME280;1180;51.438;6.978;2023-04-22T00:42:58;99548.25;;;13.37;97.37
2339;BME280;1180;51.438;6.978;2023-04-22T00:45:25;99542.91;;;13.28;97.16
2339;BME280;1180;51.438;6.978;2023-04-22T00:47:51;99540.84;;;13.22;98.21
2339;BME280;1180;51.438;6.978;2023-04-22T00:50:17;99541.63;;;13.13;99.00
2339;BME280;1180;51.438;6.978;2023-04-22T00:52:42;99537.41;;;13.12;99.58
2339;BME280;1180;51.438;6.978;2023-04-22T00:55:08;99535.94;;;13.19;99.28
2339;BME280;1180;51.438;6.978;2023-04-22T00:57:34;99534.88;;;13.22;99.26
2339;BME280;1180;51.438;6.978;2023-04-22T01:00:00;99532.28;;;13.22;98.36
2339;BME280;1180;51.438;6.978;2023-04-22T01:02:25;99534.88;;;13.22;98.64
2339;BME280;1180;51.438;6.978;2023-04-22T01:04:52;99537.06;;;13.26;99.10
2339;BME280;1180;51.438;6.978;2023-04-22T01:07:20;99531.94;;;13.26;99.07
2339;BME280;1180;51.438;6.978;2023-04-22T01:09:46;99540.28;;;13.19;99.22
2339;BME280;1180;51.438;6.978;2023-04-22T01:12:11;99534.06;;;13.21;99.81
2339;BME280;1180;51.438;6.978;2023-04-22T01:14:37;99531.59;;;13.20;99.79
2339;BME280;1180;51.438;6.978;2023-04-22T01:17:03;99530.41;;;13.24;99.46
2339;BME280;1180;51.438;6.978;2023-04-22T01:19:28;99530.91;;;13.18;99.69
2339;BME280;1180;51.438;6.978;2023-04-22T01:21:54;99529.91;;;13.09;100.00
2339;BME280;1180;51.438;6.978;2023-04-22T01:24:20;99533.63;;;13.16;100.00
2339;BME280;1180;51.438;6.978;2023-04-22T01:26:46;99536.31;;;13.14;100.00
2339;BME280;1180;51.438;6.978;2023-04-22T01:29:12;99541.53;;;13.03;100.00
2339;BME280;1180;51.438;6.978;2023-04-22T01:31:38;99540.34;;;13.07;100.00
2339;BME280;1180;51.438;6.978;2023-04-22T01:34:04;99545.69;;;13.15;99.90
2339;BME280;1180;51.438;6.978;2023-04-22T01:36:29;99548.59;;;13.22;98.71
2339;BME280;1180;51.438;6.978;2023-04-22T01:38:57;99547.31;;;13.17;98.79
2339;BME280;1180;51.438;6.978;2023-04-22T01:41:23;99544.63;;;13.18;98.73
2339;BME280;1180;51.438;6.978;2023-04-22T01:43:50;99540.72;;;13.24;98.38
2339;BME280;1180;51.438;6.978;2023-04-22T01:46:17;99544.19;;;13.34;97.52
2339;BME280;1180;51.438;6.978;2023-04-22T01:48:42;99537.41;;;13.12;98.06
2339;BME280;1180;51.438;6.978;2023-04-22T01:51:08;99535.00;;;12.99;99.39
2339;BME280;1180;51.438;6.978;2023-04-22T01:53:35;99531.16;;;12.93;99.31
2339;BME280;1180;51.438;6.978;2023-04-22T01:56:00;99527.97;;;13.01;99.61
2339;BME280;1180;51.438;6.978;2023-04-22T01:58:29;99534.59;;;12.82;100.00
2339;BME280;1180;51.438;6.978;2023-04-22T02:00:55;99538.34;;;12.78;100.00
2339;BME280;1180;51.438;6.978;2023-04-22T02:03:20;99529.78;;;12.89;100.00
2339;BME280;1180;51.438;6.978;2023-04-22T02:05:45;99533.63;;;12.95;100.00
2339;BME280;1180;51.438;6.978;2023-04-22T02:08:11;99530.91;;;12.96;100.00
2339;BME280;1180;51.438;6.978;2023-04-22T02:10:36;99533.41;;;13.08;98.90
2339;BME280;1180;51.438;6.978;2023-04-22T02:13:01;99538.28;;;13.01;98.39
2339;BME280;1180;51.438;6.978;2023-04-22T02:15:27;99533.56;;;13.06;98.56
2339;BME280;1180;51.438;6.978;2023-04-22T02:17:52;99528.78;;;13.02;98.83
2339;BME280;1180;51.438;6.978;2023-04-22T02:20:17;99533.88;;;13.13;98.04
2339;BME280;1180;51.438;6.978;2023-04-22T02:22:43;99531.41;;;12.90;98.59
2339;BME280;1180;51.438;6.978;2023-04-22T02:25:09;99532.69;;;12.96;99.33
2339;BME280;1180;51.438;6.978;2023-04-22T02:27:36;99530.81;;;12.86;99.75
2339;BME280;1180;51.438;6.978;2023-04-22T02:30:02;99528.66;;;13.03;99.32
2339;BME280;1180;51.438;6.978;2023-04-22T02:32:28;99530.16;;;13.06;98.70
2339;BME280;1180;51.438;6.978;2023-04-22T02:34:53;99526.09;;;13.03;98.74
2339;BME280;1180;51.438;6.978;2023-04-22T02:37:18;99518.88;;;12.97;98.97
2339;BME280;1180;51.438;6.978;2023-04-22T02:39:44;99518.72;;;12.98;98.58
2339;BME280;1180;51.438;6.978;2023-04-22T02:42:10;99522.84;;;12.90;99.50
2339;BME280;1180;51.438;6.978;2023-04-22T02:44:35;99519.34;;;12.91;99.80
2339;BME280;1180;51.438;6.978;2023-04-22T02:47:00;99515.25;;;12.88;99.68
2339;BME280;1180;51.438;6.978;2023-04-22T02:49:27;99512.56;;;12.90;99.87
2339;BME280;1180;51.438;6.978;2023-04-22T02:51:55;99510.22;;;12.86;100.00
2339;BME280;1180;51.438;6.978;2023-04-22T02:54:21;99504.72;;;12.91;100.00
2339;BME280;1180;51.438;6.978;2023-04-22T02:56:46;99508.34;;;12.89;100.00
2339;BME280;1180;51.438;6.978;2023-04-22T02:59:11;99502.50;;;12.86;100.00
2339;BME280;1180;51.438;6.978;2023-04-22T03:01:37;99501.44;;;12.89;100.00
2339;BME280;1180;51.438;6.978;2023-04-22T03:04:02;99505.47;;;13.03;100.00
2339;BME280;1180;51.438;6.978;2023-04-22T03:06:27;99496.19;;;13.12;99.53
2339;BME280;1180;51.438;6.978;2023-04-22T03:08:53;99502.81;;;12.93;100.00
2339;BME280;1180;51.438;6.978;2023-04-22T03:11:18;99489.25;;;13.12;100.00
2339;BME280;1180;51.438;6.978;2023-04-22T03:13:43;99484.94;;;13.13;100.00
2339;BME280;1180;51.438;6.978;2023-04-22T03:16:08;99486.19;;;13.19;100.00
2339;BME280;1180;51.438;6.978;2023-04-22T03:18:34;99480.59;;;13.13;100.00
2339;BME280;1180;51.438;6.978;2023-04-22T03:20:59;99477.31;;;13.11;100.00
2339;BME280;1180;51.438;6.978;2023-04-22T03:23:25;99479.31;;;13.08;100.00
2339;BME280;1180;51.438;6.978;2023-04-22T03:25:51;99474.06;;;13.09;100.00
2339;BME280;1180;51.438;6.978;2023-04-22T03:28:16;99470.53;;;13.10;100.00
2339;BME280;1180;51.438;6.978;2023-04-22T03:30:41;99480.28;;;13.07;100.00
2339;BME280;1180;51.438;6.978;2023-04-22T03:33:07;99477.50;;;12.98;100.00
2339;BME280;1180;51.438;6.978;2023-04-22T03:35:32;99474.31;;;13.06;100.00
2339;BME280;1180;51.438;6.978;2023-04-22T03:37:57;99469.09;;;13.18;100.00
2339;BME280;1180;51.438;6.978;2023-04-22T03:40:23;99471.91;;;13.14;100.00
2339;BME280;1180;51.438;6.978;2023-04-22T03:42:48;99461.69;;;13.03;100.00
2339;BME280;1180;51.438;6.978;2023-04-22T03:45:13;99462.38;;;13.05;100.00
2339;BME280;1180;51.438;6.978;2023-04-22T03:47:39;99462.38;;;13.05;100.00
2339;BME280;1180;51.438;6.978;2023-04-22T03:50:05;99462.44;;;13.15;100.00
2339;BME280;1180;51.438;6.978;2023-04-22T03:52:31;99461.19;;;13.09;100.00
2339;BME280;1180;51.438;6.978;2023-04-22T03:54:56;99456.34;;;13.16;99.64
2339;BME280;1180;51.438;6.978;2023-04-22T03:57:21;99457.31;;;13.25;99.34
2339;BME280;1180;51.438;6.978;2023-04-22T03:59:47;99455.16;;;13.20;98.17
2339;BME280;1180;51.438;6.978;2023-04-22T04:02:12;99445.91;;;13.18;98.49
2339;BME280;1180;51.438;6.978;2023-04-22T04:04:38;99451.31;;;13.14;98.77
2339;BME280;1180;51.438;6.978;2023-04-22T04:07:03;99450.06;;;13.30;99.13
2339;BME280;1180;51.438;6.978;2023-04-22T04:09:28;99448.97;;;13.33;98.21
2339;BME280;1180;51.438;6.978;2023-04-22T04:11:54;99448.59;;;13.37;97.78
2339;BME280;1180;51.438;6.978;2023-04-22T04:14:19;99448.97;;;13.33;96.55
2339;BME280;1180;51.438;6.978;2023-04-22T04:16:44;99448.16;;;13.32;96.97
2339;BME280;1180;51.438;6.978;2023-04-22T04:19:10;99452.38;;;13.33;97.83
2339;BME280;1180;51.438;6.978;2023-04-22T04:21:35;99448.78;;;13.24;97.47
2339;BME280;1180;51.438;6.978;2023-04-22T04:24:05;99448.69;;;13.36;97.32
2339;BME280;1180;51.438;6.978;2023-04-22T04:26:30;99438.97;;;13.39;96.80
2339;BME280;1180;51.438;6.978;2023-04-22T04:28:56;99437.41;;;13.48;97.08
2339;BME280;1180;51.438;6.978;2023-04-22T04:31:22;99429.69;;;13.48;96.19
2339;BME280;1180;51.438;6.978;2023-04-22T04:33:48;99429.09;;;13.45;96.84
2339;BME280;1180;51.438;6.978;2023-04-22T04:36:14;99430.22;;;13.52;96.51
2339;BME280;1180;51.438;6.978;2023-04-22T04:38:40;99424.03;;;13.64;95.35
2339;BME280;1180;51.438;6.978;2023-04-22T04:41:05;99421.16;;;13.57;95.22
2339;BME280;1180;51.438;6.978;2023-04-22T04:43:33;99422.75;;;13.49;95.02
2339;BME280;1180;51.438;6.978;2023-04-22T04:45:59;99419.38;;;13.58;95.03
2339;BME280;1180;51.438;6.978;2023-04-22T04:48:25;99427.66;;;13.62;94.87
2339;BME280;1180;51.438;6.978;2023-04-22T04:50:51;99431.75;;;13.64;94.87
2339;BME280;1180;51.438;6.978;2023-04-22T04:53:19;99434.31;;;13.54;95.30
2339;BME280;1180;51.438;6.978;2023-04-22T04:55:45;99431.69;;;13.45;95.25
2339;BME280;1180;51.438;6.978;2023-04-22T04:58:10;99431.03;;;13.52;95.43
2339;BME280;1180;51.438;6.978;2023-04-22T05:00:35;99428.03;;;13.47;94.41
2339;BME280;1180;51.438;6.978;2023-04-22T05:03:01;99426.00;;;13.51;93.89
2339;BME280;1180;51.438;6.978;2023-04-22T05:05:27;99422.63;;;13.50;94.55
2339;BME280;1180;51.438;6.978;2023-04-22T05:07:52;99418.19;;;13.62;93.85
2339;BME280;1180;51.438;6.978;2023-04-22T05:10:18;99421.31;;;13.66;93.36
2339;BME280;1180;51.438;6.978;2023-04-22T05:12:43;99417.63;;;13.58;93.65
2339;BME280;1180;51.438;6.978;2023-04-22T05:15:10;99414.63;;;13.53;92.99
2339;BME280;1180;51.438;6.978;2023-04-22T05:17:42;99402.03;;;13.60;93.24
2339;BME280;1180;51.438;6.978;2023-04-22T05:20:07;99411.13;;;13.64;92.73
2339;BME280;1180;51.438;6.978;2023-04-22T05:22:34;99403.69;;;13.81;91.37
2339;BME280;1180;51.438;6.978;2023-04-22T05:25:02;99409.25;;;13.86;91.71
2339;BME280;1180;51.438;6.978;2023-04-22T05:27:28;99405.75;;;13.87;90.18
2339;BME280;1180;51.438;6.978;2023-04-22T05:29:54;99409.00;;;13.99;90.86
2339;BME280;1180;51.438;6.978;2023-04-22T05:32:20;99408.31;;;13.87;89.74
2339;BME280;1180;51.438;6.978;2023-04-22T05:34:45;99409.53;;;13.83;90.47
2339;BME280;1180;51.438;6.978;2023-04-22T05:37:10;99406.97;;;13.83;90.33
2339;BME280;1180;51.438;6.978;2023-04-22T05:39:36;99406.00;;;13.84;91.32
2339;BME280;1180;51.438;6.978;2023-04-22T05:42:01;99406.56;;;13.88;91.14
2339;BME280;1180;51.438;6.978;2023-04-22T05:44:26;99418.25;;;14.01;88.86
2339;BME280;1180;51.438;6.978;2023-04-22T05:46:52;99412.81;;;13.95;90.03
2339;BME280;1180;51.438;6.978;2023-04-22T05:49:17;99414.19;;;14.09;89.41
2339;BME280;1180;51.438;6.978;2023-04-22T05:51:42;99408.91;;;14.10;88.52
2339;BME280;1180;51.438;6.978;2023-04-22T05:54:07;99416.13;;;14.26;87.69
2339;BME280;1180;51.438;6.978;2023-04-22T05:56:33;99423.84;;;14.36;87.87
2339;BME280;1180;51.438;6.978;2023-04-22T05:58:58;99427.41;;;14.25;87.56
2339;BME280;1180;51.438;6.978;2023-04-22T06:01:23;99423.84;;;14.36;87.56
2339;BME280;1180;51.438;6.978;2023-04-22T06:03:49;99425.47;;;14.37;87.90
2339;BME280;1180;51.438;6.978;2023-04-22T06:06:15;99422.88;;;14.37;87.17
2339;BME280;1180;51.438;6.978;2023-04-22T06:08:41;99419.63;;;14.35;87.18
2339;BME280;1180;51.438;6.978;2023-04-22T06:11:06;99429.28;;;14.43;87.61
2339;BME280;1180;51.438;6.978;2023-04-22T06:13:32;99427.09;;;14.48;87.92
2339;BME280;1180;51.438;6.978;2023-04-22T06:15:57;99427.78;;;14.60;86.82
2339;BME280;1180;51.438;6.978;2023-04-22T06:18:23;99422.50;;;14.62;86.60
2339;BME280;1180;51.438;6.978;2023-04-22T06:20:48;99429.13;;;14.64;86.24
2339;BME280;1180;51.438;6.978;2023-04-22T06:23:13;99423.97;;;14.64;86.20
2339;BME280;1180;51.438;6.978;2023-04-22T06:25:39;99422.34;;;14.83;86.94
2339;BME280;1180;51.438;6.978;2023-04-22T06:28:04;99416.78;;;14.78;86.53
2339;BME280;1180;51.438;6.978;2023-04-22T06:30:29;99423.69;;;14.67;85.42
2339;BME280;1180;51.438;6.978;2023-04-22T06:32:55;99414.03;;;14.69;86.23
2339;BME280;1180;51.438;6.978;2023-04-22T06:35:20;99425.47;;;14.67;85.05
2339;BME280;1180;51.438;6.978;2023-04-22T06:37:49;99414.59;;;14.83;84.67
2339;BME280;1180;51.438;6.978;2023-04-22T06:40:14;99412.78;;;15.03;84.12
2339;BME280;1180;51.438;6.978;2023-04-22T06:42:40;99417.19;;;15.21;83.31
2339;BME280;1180;51.438;6.978;2023-04-22T06:45:06;99411.41;;;15.37;82.16
2339;BME280;1180;51.438;6.978;2023-04-22T06:47:33;99415.09;;;15.44;82.08
2339;BME280;1180;51.438;6.978;2023-04-22T06:49:58;99412.84;;;15.59;82.20
2339;BME280;1180;51.438;6.978;2023-04-22T06:52:24;99404.88;;;15.42;81.34
2339;BME280;1180;51.438;6.978;2023-04-22T06:54:49;99403.44;;;15.58;80.65
2339;BME280;1180;51.438;6.978;2023-04-22T06:57:14;99400.06;;;15.76;80.28
2339;BME280;1180;51.438;6.978;2023-04-22T06:59:40;99410.19;;;15.87;79.15
2339;BME280;1180;51.438;6.978;2023-04-22T07:02:06;99408.34;;;15.79;79.59
2339;BME280;1180;51.438;6.978;2023-04-22T07:04:31;99412.09;;;15.95;79.04
2339;BME280;1180;51.438;6.978;2023-04-22T07:06:56;99410.41;;;16.03;79.13
2339;BME280;1180;51.438;6.978;2023-04-22T07:09:22;99406.56;;;16.08;78.20
2339;BME280;1180;51.438;6.978;2023-04-22T07:11:48;99401.81;;;16.03;77.83
2339;BME280;1180;51.438;6.978;2023-04-22T07:14:13;99398.13;;;16.24;76.42
2339;BME280;1180;51.438;6.978;2023-04-22T07:16:39;99402.88;;;16.28;76.60
2339;BME280;1180;51.438;6.978;2023-04-22T07:19:04;99393.31;;;16.29;75.39
2339;BME280;1180;51.438;6.978;2023-04-22T07:21:33;99407.66;;;16.41;74.51
2339;BME280;1180;51.438;6.978;2023-04-22T07:23:58;99405.88;;;16.42;74.20
2339;BME280;1180;51.438;6.978;2023-04-22T07:26:24;99403.91;;;16.62;73.48
2339;BME280;1180;51.438;6.978;2023-04-22T07:28:49;99407.72;;;16.76;72.46
2339;BME280;1180;51.438;6.978;2023-04-22T07:31:15;99397.84;;;16.98;72.00
2339;BME280;1180;51.438;6.978;2023-04-22T07:33:40;99400.22;;;16.91;72.43
2339;BME280;1180;51.438;6.978;2023-04-22T07:36:06;99391.34;;;16.94;71.05
2339;BME280;1180;51.438;6.978;2023-04-22T07:38:32;99397.91;;;17.06;70.63
2339;BME280;1180;51.438;6.978;2023-04-22T07:40:57;99388.53;;;17.13;69.90
2339;BME280;1180;51.438;6.978;2023-04-22T07:43:25;99383.66;;;17.10;70.10
2339;BME280;1180;51.438;6.978;2023-04-22T07:45:51;99387.59;;;17.23;69.37
2339;BME280;1180;51.438;6.978;2023-04-22T07:48:16;99376.06;;;17.17;70.00
2339;BME280;1180;51.438;6.978;2023-04-22T07:50:44;99388.88;;;17.18;68.78
2339;BME280;1180;51.438;6.978;2023-04-22T07:53:10;99381.91;;;17.19;70.37
2339;BME280;1180;51.438;6.978;2023-04-22T07:55:35;99392.50;;;17.26;71.12
2339;BME280;1180;51.438;6.978;2023-04-22T07:58:01;99381.69;;;17.47;69.28
2339;BME280;1180;51.438;6.978;2023-04-22T08:00:31;99377.66;;;17.53;69.36
2339;BME280;1180;51.438;6.978;2023-04-22T08:02:57;99380.94;;;17.63;68.87
2339;BME280;1180;51.438;6.978;2023-04-22T08:05:23;99379.00;;;17.73;69.13
2339;BME280;1180;51.438;6.978;2023-04-22T08:07:48;99361.81;;;17.81;67.59
2339;BME280;1180;51.438;6.978;2023-04-22T08:10:14;99364.28;;;17.82;68.50
2339;BME280;1180;51.438;6.978;2023-04-22T08:12:39;99361.34;;;17.94;66.99
2339;BME280;1180;51.438;6.978;2023-04-22T08:15:05;99360.91;;;18.07;66.45
2339;BME280;1180;51.438;6.978;2023-04-22T08:17:30;99365.59;;;18.03;68.40
2339;BME280;1180;51.438;6.978;2023-04-22T08:19:56;99366.41;;;18.20;66.82
2339;BME280;1180;51.438;6.978;2023-04-22T08:22:21;99364.47;;;18.39;65.91
2339;BME280;1180;51.438;6.978;2023-04-22T08:24:47;99362.34;;;18.51;65.25
2339;BME280;1180;51.438;6.978;2023-04-22T08:27:13;99375.97;;;18.53;65.12
2339;BME280;1180;51.438;6.978;2023-04-22T08:29:38;99362.16;;;18.52;65.37
2339;BME280;1180;51.438;6.978;2023-04-22T08:32:04;99367.34;;;18.69;64.57
2339;BME280;1180;51.438;6.978;2023-04-22T08:34:29;99368.66;;;18.65;64.55
2339;BME280;1180;51.438;6.978;2023-04-22T08:36:54;99365.06;;;18.74;62.38
2339;BME280;1180;51.438;6.978;2023-04-22T08:39:20;99357.75;;;18.77;63.66
2339;BME280;1180;51.438;6.978;2023-04-22T08:41:45;99352.03;;;18.82;62.60
2339;BME280;1180;51.438;6.978;2023-04-22T08:44:13;99354.50;;;18.75;63.20
2339;BME280;1180;51.438;6.978;2023-04-22T08:46:39;99344.13;;;18.75;63.43
2339;BME280;1180;51.438;6.978;2023-04-22T08:49:05;99339.03;;;18.99;61.90
2339;BME280;1180;51.438;6.978;2023-04-22T08:51:31;99344.44;;;19.29;61.22
2339;BME280;1180;51.438;6.978;2023-04-22T08:53:58;99344.19;;;19.39;60.86
2339;BME280;1180;51.438;6.978;2023-04-22T08:56:25;99347.97;;;19.36;60.84
2339;BME280;1180;51.438;6.978;2023-04-22T08:58:51;99339.16;;;19.37;62.30
2339;BME280;1180;51.438;6.978;2023-04-22T09:01:17;99344.66;;;19.42;59.51
2339;BME280;1180;51.438;6.978;2023-04-22T09:03:43;99344.09;;;19.32;61.12
2339;BME280;1180;51.438;6.978;2023-04-22T09:06:10;99331.78;;;19.49;59.29
2339;BME280;1180;51.438;6.978;2023-04-22T09:08:36;99334.97;;;19.59;59.06
2339;BME280;1180;51.438;6.978;2023-04-22T09:11:02;99332.38;;;19.59;59.17
2339;BME280;1180;51.438;6.978;2023-04-22T09:13:28;99326.66;;;19.64;59.93
2339;BME280;1180;51.438;6.978;2023-04-22T09:15:53;99326.88;;;19.77;59.22
2339;BME280;1180;51.438;6.978;2023-04-22T09:18:19;99326.09;;;20.00;58.40
2339;BME280;1180;51.438;6.978;2023-04-22T09:20:46;99326.00;;;20.09;58.54
2339;BME280;1180;51.438;6.978;2023-04-22T09:23:12;99319.81;;;20.10;58.52
2339;BME280;1180;51.438;6.978;2023-04-22T09:25:38;99324.28;;;20.24;57.61
2339;BME280;1180;51.438;6.978;2023-04-22T09:28:04;99324.00;;;20.34;57.83
2339;BME280;1180;51.438;6.978;2023-04-22T09:30:34;99323.72;;;20.29;59.04
2339;BME280;1180;51.438;6.978;2023-04-22T09:33:02;99323.38;;;20.47;57.69
2339;BME280;1180;51.438;6.978;2023-04-22T09:35:36;99321.50;;;20.56;57.14
2339;BME280;1180;51.438;6.978;2023-04-22T09:38:03;99334.72;;;20.69;57.14
2339;BME280;1180;51.438;6.978;2023-04-22T09:40:30;99325.38;;;20.60;57.02
2339;BME280;1180;51.438;6.978;2023-04-22T09:42:59;99331.75;;;20.72;55.60
2339;BME280;1180;51.438;6.978;2023-04-22T09:45:26;99320.63;;;20.63;56.40
2339;BME280;1180;51.438;6.978;2023-04-22T09:47:53;99313.31;;;20.74;55.81
2339;BME280;1180;51.438;6.978;2023-04-22T09:50:20;99319.00;;;20.77;57.01
2339;BME280;1180;51.438;6.978;2023-04-22T09:52:56;99318.38;;;20.90;56.50
2339;BME280;1180;51.438;6.978;2023-04-22T09:55:23;99319.31;;;21.04;56.15
2339;BME280;1180;51.438;6.978;2023-04-22T09:57:54;99312.88;;;21.00;55.96
2339;BME280;1180;51.438;6.978;2023-04-22T10:00:22;99311.84;;;21.16;54.79
2339;BME280;1180;51.438;6.978;2023-04-22T10:02:47;99313.56;;;21.09;55.17
2339;BME280;1180;51.438;6.978;2023-04-22T10:05:13;99312.25;;;21.35;53.92
2339;BME280;1180;51.438;6.978;2023-04-22T10:07:38;99306.97;;;21.28;54.65
2339;BME280;1180;51.438;6.978;2023-04-22T10:10:07;99313.50;;;21.39;54.38
2339;BME280;1180;51.438;6.978;2023-04-22T10:12:34;99312.63;;;21.54;54.05
2339;BME280;1180;51.438;6.978;2023-04-22T10:14:59;99309.97;;;21.47;54.58
2339;BME280;1180;51.438;6.978;2023-04-22T10:17:28;99312.34;;;21.42;54.49
2339;BME280;1180;51.438;6.978;2023-04-22T10:19:55;99305.84;;;21.38;53.67
2339;BME280;1180;51.438;6.978;2023-04-22T10:22:21;99302.63;;;21.35;53.45
2339;BME280;1180;51.438;6.978;2023-04-22T10:24:46;99300.94;;;21.49;54.22
2339;BME280;1180;51.438;6.978;2023-04-22T10:27:20;99290.47;;;21.64;55.09
2339;BME280;1180;51.438;6.978;2023-04-22T10:29:45;99294.38;;;21.75;53.71
2339;BME280;1180;51.438;6.978;2023-04-22T10:34:43;99292.22;;;21.79;54.20
2339;BME280;1180;51.438;6.978;2023-04-22T10:37:11;99297.06;;;21.82;54.26
2339;BME280;1180;51.438;6.978;2023-04-22T10:39:39;99305.19;;;21.94;53.84
2339;BME280;1180;51.438;6.978;2023-04-22T10:42:10;99303.63;;;22.00;53.82
2339;BME280;1180;51.438;6.978;2023-04-22T10:44:51;99301.38;;;21.97;53.08
2339;BME280;1180;51.438;6.978;2023-04-22T10:47:24;99298.69;;;22.12;53.46
2339;BME280;1180;51.438;6.978;2023-04-22T10:49:50;99304.03;;;22.32;53.04
2339;BME280;1180;51.438;6.978;2023-04-22T10:52:28;99296.63;;;22.35;52.33
2339;BME280;1180;51.438;6.978;2023-04-22T10:57:19;99287.09;;;22.49;51.36
2339;BME280;1180;51.438;6.978;2023-04-22T10:59:53;99293.19;;;22.28;52.65
2339;BME280;1180;51.438;6.978;2023-04-22T11:02:19;99298.78;;;22.25;53.53
2339;BME280;1180;51.438;6.978;2023-04-22T11:04:46;99297.03;;;22.32;53.35
2339;BME280;1180;51.438;6.978;2023-04-22T11:09:46;99287.84;;;22.78;53.13
2339;BME280;1180;51.438;6.978;2023-04-22T11:15:11;99275.56;;;22.79;52.44
2339;BME280;1180;51.438;6.978;2023-04-22T11:17:38;99302.00;;;22.98;52.15
2339;BME280;1180;51.438;6.978;2023-04-22T11:20:06;99309.47;;;23.07;50.65
2339;BME280;1180;51.438;6.978;2023-04-22T11:22:36;99298.63;;;23.17;49.07
2339;BME280;1180;51.438;6.978;2023-04-22T11:25:03;99294.38;;;23.10;49.56
2339;BME280;1180;51.438;6.978;2023-04-22T11:27:29;99306.47;;;23.11;49.38
2339;BME280;1180;51.438;6.978;2023-04-22T11:30:02;99292.16;;;23.13;50.41
2339;BME280;1180;51.438;6.978;2023-04-22T11:34:55;99303.97;;;23.38;49.87
2339;BME280;1180;51.438;6.978;2023-04-22T11:37:21;99296.69;;;23.46;49.38
2339;BME280;1180;51.438;6.978;2023-04-22T11:39:47;99299.53;;;23.45;49.16
2339;BME280;1180;51.438;6.978;2023-04-22T11:42:19;99284.03;;;23.57;50.21
2339;BME280;1180;51.438;6.978;2023-04-22T11:44:46;99302.31;;;23.36;50.00
2339;BME280;1180;51.438;6.978;2023-04-22T11:47:11;99297.47;;;23.33;50.07
2339;BME280;1180;51.438;6.978;2023-04-22T11:52:02;99298.41;;;23.05;50.07
2339;BME280;1180;51.438;6.978;2023-04-22T11:54:36;99303.41;;;23.00;50.31
2339;BME280;1180;51.438;6.978;2023-04-22T11:57:07;99296.28;;;22.81;50.64
2339;BME280;1180;51.438;6.978;2023-04-22T11:59:33;99298.88;;;22.74;50.98
2339;BME280;1180;51.438;6.978;2023-04-22T12:01:59;99293.22;;;22.70;51.37
2339;BME280;1180;51.438;6.978;2023-04-22T12:04:24;99287.63;;;22.80;50.71
2339;BME280;1180;51.438;6.978;2023-04-22T12:06:52;99296.34;;;22.94;50.18
2339;BME280;1180;51.438;6.978;2023-04-22T12:09:18;99285.06;;;22.87;51.62
2339;BME280;1180;51.438;6.978;2023-04-22T12:11:44;99287.69;;;22.93;50.41
2339;BME280;1180;51.438;6.978;2023-04-22T12:14:10;99294.53;;;23.01;50.49
2339;BME280;1180;51.438;6.978;2023-04-22T12:16:40;99291.16;;;23.14;50.73
2339;BME280;1180;51.438;6.978;2023-04-22T12:19:06;99287.41;;;23.30;50.86
2339;BME280;1180;51.438;6.978;2023-04-22T12:21:32;99292.47;;;23.32;49.03
2339;BME280;1180;51.438;6.978;2023-04-22T12:23:59;99283.19;;;23.36;48.76
2339;BME280;1180;51.438;6.978;2023-04-22T12:26:25;99281.38;;;23.30;49.64
2339;BME280;1180;51.438;6.978;2023-04-22T12:28:52;99285.53;;;23.17;50.71
2339;BME280;1180;51.438;6.978;2023-04-22T12:31:18;99290.63;;;23.32;50.37
2339;BME280;1180;51.438;6.978;2023-04-22T12:33:44;99290.66;;;23.39;50.47
2339;BME280;1180;51.438;6.978;2023-04-22T12:36:10;99281.59;;;23.42;49.32
2339;BME280;1180;51.438;6.978;2023-04-22T12:38:36;99289.25;;;23.43;49.47
2339;BME280;1180;51.438;6.978;2023-04-22T12:41:05;99294.31;;;23.58;49.77
2339;BME280;1180;51.438;6.978;2023-04-22T12:43:32;99290.28;;;23.49;50.01
2339;BME280;1180;51.438;6.978;2023-04-22T12:46:00;99285.66;;;23.71;50.57
2339;BME280;1180;51.438;6.978;2023-04-22T12:48:26;99281.22;;;23.65;50.50
2339;BME280;1180;51.438;6.978;2023-04-22T12:50:51;99280.22;;;24.06;49.86
2339;BME280;1180;51.438;6.978;2023-04-22T12:53:17;99278.19;;;24.22;49.59
2339;BME280;1180;51.438;6.978;2023-04-22T12:55:42;99280.59;;;24.23;49.09
2339;BME280;1180;51.438;6.978;2023-04-22T12:58:07;99276.59;;;24.21;48.97
2339;BME280;1180;51.438;6.978;2023-04-22T13:00:33;99279.81;;;24.16;49.18
2339;BME280;1180;51.438;6.978;2023-04-22T13:02:58;99283.00;;;24.32;48.92
2339;BME280;1180;51.438;6.978;2023-04-22T13:05:24;99282.44;;;24.09;49.97
2339;BME280;1180;51.438;6.978;2023-04-22T13:07:50;99280.41;;;24.12;49.50
2339;BME280;1180;51.438;6.978;2023-04-22T13:10:16;99281.56;;;24.43;50.30
2339;BME280;1180;51.438;6.978;2023-04-22T13:12:42;99280.13;;;24.47;49.42
2339;BME280;1180;51.438;6.978;2023-04-22T13:15:08;99291.66;;;24.32;49.08
2339;BME280;1180;51.438;6.978;2023-04-22T13:17:35;99285.59;;;24.38;48.79
2339;BME280;1180;51.438;6.978;2023-04-22T13:20:01;99286.44;;;24.32;49.33
2339;BME280;1180;51.438;6.978;2023-04-22T13:22:28;99284.00;;;24.37;49.92
2339;BME280;1180;51.438;6.978;2023-04-22T13:24:54;99276.72;;;24.40;49.23
2339;BME280;1180;51.438;6.978;2023-04-22T13:27:19;99279.53;;;24.45;49.17
2339;BME280;1180;51.438;6.978;2023-04-22T13:29:45;99281.81;;;24.21;49.45